createdAt,value
2022-12-31T00:00:07.498Z,99326.75
2022-12-31T00:02:34.069Z,99339.38
2022-12-31T00:05:00.550Z,99329.59
2022-12-31T00:07:27.062Z,99348.19
2022-12-31T00:09:53.490Z,99358.19
2022-12-31T00:12:20.003Z,99369.00
2022-12-31T00:14:46.667Z,99377.75
2022-12-31T00:17:13.148Z,99378.81
2022-12-31T00:19:40.664Z,99382.16
2022-12-31T00:22:07.096Z,99376.41
2022-12-31T00:24:35.732Z,99377.28
2022-12-31T00:27:02.295Z,99383.25
2022-12-31T00:29:28.776Z,99393.03
2022-12-31T00:31:55.174Z,99382.94
2022-12-31T00:34:21.601Z,99395.84
2022-12-31T00:36:48.212Z,99397.34
2022-12-31T00:39:14.593Z,99392.91
2022-12-31T00:41:43.183Z,99394.22
2022-12-31T00:44:11.806Z,99400.19
2022-12-31T00:49:03.522Z,99401.69
2022-12-31T00:51:29.967Z,99408.94
2022-12-31T00:53:57.497Z,99412.13
2022-12-31T00:56:26.639Z,99419.41
2022-12-31T00:58:53.471Z,99413.75
2022-12-31T01:01:25.355Z,99410.44
2022-12-31T01:03:56.083Z,99416.41
2022-12-31T01:06:22.887Z,99419.06
2022-12-31T01:08:50.398Z,99417.75
2022-12-31T01:11:24.232Z,99416.06
2022-12-31T01:13:58.215Z,99420.56
2022-12-31T01:16:29.714Z,99434.13
2022-12-31T01:19:02.076Z,99429.50
2022-12-31T01:21:29.495Z,99430.47
2022-12-31T01:23:55.977Z,99434.63
2022-12-31T01:26:22.535Z,99439.41
2022-12-31T01:28:48.956Z,99440.59
2022-12-31T01:31:18.055Z,99445.91
2022-12-31T01:33:45.293Z,99452.84
2022-12-31T01:36:19.057Z,99442.91
2022-12-31T01:38:50.257Z,99454.47
2022-12-31T01:41:21.193Z,99466.06
2022-12-31T01:43:50.667Z,99470.53
2022-12-31T01:46:38.160Z,99463.41
2022-12-31T01:49:13.381Z,99473.34
2022-12-31T01:51:42.767Z,99468.03
2022-12-31T01:54:12.933Z,99488.06
2022-12-31T01:56:42.528Z,99483.91
2022-12-31T01:59:11.214Z,99472.34
2022-12-31T02:01:38.464Z,99483.91
2022-12-31T02:04:09.303Z,99471.34
2022-12-31T02:06:41.311Z,99481.94
2022-12-31T02:09:07.903Z,99481.63
2022-12-31T02:11:37.755Z,99481.63
2022-12-31T02:14:11.764Z,99478.00
2022-12-31T02:17:01.427Z,99484.63
2022-12-31T02:20:01.937Z,99475.53
2022-12-31T02:22:50.141Z,99482.66
2022-12-31T02:25:31.562Z,99484.97
2022-12-31T02:28:25.247Z,99480.66
2022-12-31T02:31:21.954Z,99488.94
2022-12-31T02:34:02.799Z,99480.63
2022-12-31T02:36:35.648Z,99472.06
2022-12-31T02:39:04.361Z,99480.00
2022-12-31T02:41:49.406Z,99469.38
2022-12-31T02:44:29.926Z,99459.75
2022-12-31T02:47:08.680Z,99468.31
2022-12-31T02:49:43.703Z,99461.41
2022-12-31T02:52:38.657Z,99463.31
2022-12-31T02:55:10.772Z,99457.34
2022-12-31T02:57:47.200Z,99436.31
2022-12-31T03:00:35.131Z,99436.22
2022-12-31T03:03:02.866Z,99425.78
2022-12-31T03:05:34.353Z,99421.06
2022-12-31T03:08:00.918Z,99431.34
2022-12-31T03:10:27.308Z,99436.66
2022-12-31T03:12:54.225Z,99443.13
2022-12-31T03:15:26.767Z,99437.59
2022-12-31T03:18:00.528Z,99448.91
2022-12-31T03:20:56.848Z,99447.53
2022-12-31T03:23:26.367Z,99453.69
2022-12-31T03:25:53.386Z,99449.03
2022-12-31T03:28:22.314Z,99442.50
2022-12-31T03:30:53.209Z,99438.84
2022-12-31T03:33:20.902Z,99441.31
2022-12-31T03:35:49.089Z,99449.59
2022-12-31T03:38:16.490Z,99439.84
2022-12-31T03:40:47.634Z,99446.00
2022-12-31T03:43:14.450Z,99447.28
2022-12-31T03:45:41.183Z,99442.59
2022-12-31T03:48:09.685Z,99437.56
2022-12-31T03:50:36.119Z,99422.47
2022-12-31T03:53:02.887Z,99439.84
2022-12-31T03:55:29.420Z,99439.19
2022-12-31T03:57:55.815Z,99434.53
2022-12-31T04:00:22.419Z,99424.41
2022-12-31T04:02:49.776Z,99440.09
2022-12-31T04:05:17.234Z,99434.22
2022-12-31T04:07:43.770Z,99436.50
2022-12-31T04:10:12.295Z,99436.88
2022-12-31T04:12:39.367Z,99439.00
2022-12-31T04:15:07.646Z,99427.03
2022-12-31T04:17:34.128Z,99436.50
2022-12-31T04:20:00.615Z,99429.00
2022-12-31T04:22:27.050Z,99429.72
2022-12-31T04:24:53.489Z,99440.38
2022-12-31T04:27:19.869Z,99443.75
2022-12-31T04:29:46.292Z,99439.91
2022-12-31T04:32:12.739Z,99427.13
2022-12-31T04:34:39.440Z,99426.06
2022-12-31T04:37:05.794Z,99414.91
2022-12-31T04:39:32.241Z,99420.06
2022-12-31T04:41:58.666Z,99421.63
2022-12-31T04:44:25.037Z,99409.09
2022-12-31T04:46:51.508Z,99419.03
2022-12-31T04:49:18.035Z,99411.66
2022-12-31T04:51:44.377Z,99407.38
2022-12-31T04:54:10.850Z,99403.69
2022-12-31T04:56:37.368Z,99416.78
2022-12-31T04:59:04.909Z,99425.38
2022-12-31T05:01:31.544Z,99418.03
2022-12-31T05:03:58.677Z,99422.28
2022-12-31T05:06:25.133Z,99427.16
2022-12-31T05:08:51.548Z,99422.41
2022-12-31T05:11:18.110Z,99420.38
2022-12-31T05:13:45.039Z,99421.59
2022-12-31T05:16:11.519Z,99403.53
2022-12-31T05:18:37.972Z,99405.47
2022-12-31T05:21:05.299Z,99407.88
2022-12-31T05:23:31.694Z,99411.47
2022-12-31T05:25:59.541Z,99418.94
2022-12-31T05:28:26.537Z,99403.19
2022-12-31T05:30:53.052Z,99413.84
2022-12-31T05:33:19.885Z,99413.03
2022-12-31T05:35:46.345Z,99394.78
2022-12-31T05:38:12.732Z,99398.72
2022-12-31T05:40:39.171Z,99408.38
2022-12-31T05:43:05.710Z,99419.03
2022-12-31T05:45:32.426Z,99408.81
2022-12-31T05:47:58.929Z,99391.88
2022-12-31T05:50:25.487Z,99413.78
2022-12-31T05:52:52.156Z,99426.88
2022-12-31T05:55:18.761Z,99422.44
2022-12-31T05:57:45.140Z,99424.47
2022-12-31T06:00:12.541Z,99430.19
2022-12-31T06:02:38.927Z,99432.69
2022-12-31T06:05:05.741Z,99434.50
2022-12-31T06:07:32.319Z,99453.81
2022-12-31T06:09:58.722Z,99448.59
2022-12-31T06:12:25.088Z,99443.13
2022-12-31T06:14:51.480Z,99458.50
2022-12-31T06:17:19.020Z,99450.19
2022-12-31T06:19:46.458Z,99457.13
2022-12-31T06:22:13.181Z,99457.25
2022-12-31T06:24:39.616Z,99425.78
2022-12-31T06:27:06.005Z,99446.19
2022-12-31T06:29:32.376Z,99437.47
2022-12-31T06:31:58.724Z,99436.31
2022-12-31T06:34:25.082Z,99442.03
2022-12-31T06:36:51.532Z,99433.38
2022-12-31T06:39:17.972Z,99436.56
2022-12-31T06:41:44.338Z,99429.31
2022-12-31T06:44:10.841Z,99424.00
2022-12-31T06:46:37.193Z,99442.88
2022-12-31T06:49:03.583Z,99424.78
2022-12-31T06:51:30.065Z,99428.03
2022-12-31T06:53:56.498Z,99429.47
2022-12-31T06:56:33.155Z,99452.69
2022-12-31T06:59:00.449Z,99454.34
2022-12-31T07:01:48.479Z,99460.88
2022-12-31T07:04:26.934Z,99464.13
2022-12-31T07:07:07.950Z,99464.63
2022-12-31T07:09:55.634Z,99485.84
2022-12-31T07:12:36.456Z,99478.97
2022-12-31T07:15:15.123Z,99483.94
2022-12-31T07:18:03.269Z,99480.63
2022-12-31T07:20:30.113Z,99485.09
2022-12-31T07:22:56.681Z,99484.69
2022-12-31T07:25:23.505Z,99488.88
2022-12-31T07:28:03.345Z,99476.66
2022-12-31T07:30:48.510Z,99471.63
2022-12-31T07:33:22.705Z,99469.03
2022-12-31T07:36:04.897Z,99471.31
2022-12-31T07:38:50.097Z,99473.75
2022-12-31T07:41:35.151Z,99472.09
2022-12-31T07:44:16.000Z,99478.69
2022-12-31T07:47:03.485Z,99475.19
2022-12-31T07:49:31.046Z,99487.66
2022-12-31T07:51:57.895Z,99474.81
2022-12-31T07:54:24.511Z,99469.91
2022-12-31T07:56:51.505Z,99470.13
2022-12-31T07:59:40.592Z,99471.59
2022-12-31T08:02:16.600Z,99478.06
2022-12-31T08:05:04.391Z,99470.94
2022-12-31T08:07:45.427Z,99479.63
2022-12-31T08:10:20.128Z,99472.66
2022-12-31T08:12:50.102Z,99477.25
2022-12-31T08:15:19.226Z,99473.16
2022-12-31T08:17:45.949Z,99492.50
2022-12-31T08:20:14.806Z,99494.78
2022-12-31T08:23:06.674Z,99492.16
2022-12-31T08:26:13.574Z,99499.78
2022-12-31T08:28:54.970Z,99497.94
2022-12-31T08:31:31.420Z,99490.53
2022-12-31T08:34:13.083Z,99502.06
2022-12-31T08:37:03.332Z,99484.41
2022-12-31T08:40:00.593Z,99477.59
2022-12-31T08:42:48.953Z,99486.44
2022-12-31T08:45:49.073Z,99495.94
2022-12-31T08:48:36.961Z,99492.00
2022-12-31T08:51:03.730Z,99488.94
2022-12-31T08:53:30.366Z,99503.75
2022-12-31T08:56:23.914Z,99507.88
2022-12-31T08:59:23.844Z,99515.91
2022-12-31T09:02:08.170Z,99492.22
2022-12-31T09:05:02.040Z,99507.72
2022-12-31T09:07:37.383Z,99511.44
2022-12-31T09:10:20.828Z,99525.19
2022-12-31T09:13:06.103Z,99512.25
2022-12-31T09:15:52.266Z,99513.28
2022-12-31T09:18:18.760Z,99520.91
2022-12-31T09:20:45.321Z,99535.91
2022-12-31T09:23:13.253Z,99541.28
2022-12-31T09:26:21.450Z,99540.88
2022-12-31T09:28:57.495Z,99554.06
2022-12-31T09:31:35.613Z,99546.63
2022-12-31T09:34:13.617Z,99538.00
2022-12-31T09:36:49.569Z,99558.56
2022-12-31T09:39:40.128Z,99554.66
2022-12-31T09:42:51.126Z,99563.72
2022-12-31T09:45:54.403Z,99554.03
2022-12-31T09:48:44.955Z,99553.00
2022-12-31T09:51:26.407Z,99559.38
2022-12-31T09:54:14.335Z,99538.81
2022-12-31T09:56:59.014Z,99553.84
2022-12-31T09:59:33.225Z,99543.31
2022-12-31T10:02:41.994Z,99543.72
2022-12-31T10:05:46.181Z,99544.94
2022-12-31T10:08:41.042Z,99540.00
2022-12-31T10:11:48.625Z,99542.84
2022-12-31T10:14:33.153Z,99540.41
2022-12-31T10:17:24.314Z,99541.38
2022-12-31T10:20:16.791Z,99549.03
2022-12-31T10:23:02.810Z,99549.66
2022-12-31T10:25:48.824Z,99536.66
2022-12-31T10:28:31.284Z,99546.34
2022-12-31T10:31:12.725Z,99552.28
2022-12-31T10:33:53.643Z,99562.38
2022-12-31T10:36:23.572Z,99537.00
2022-12-31T10:39:24.027Z,99543.78
2022-12-31T10:42:05.617Z,99548.97
2022-12-31T10:44:41.019Z,99546.91
2022-12-31T10:47:41.548Z,99547.28
2022-12-31T10:50:31.346Z,99556.78
2022-12-31T10:53:10.073Z,99558.00
2022-12-31T10:55:47.842Z,99567.09
2022-12-31T10:58:45.733Z,99563.38
2022-12-31T11:01:30.559Z,99553.03
2022-12-31T11:04:33.875Z,99544.81
2022-12-31T11:07:30.999Z,99547.28
2022-12-31T11:10:19.205Z,99556.78
2022-12-31T11:13:04.785Z,99559.22
2022-12-31T11:15:50.618Z,99558.00
2022-12-31T11:18:35.572Z,99551.00
2022-12-31T11:21:28.220Z,99532.63
2022-12-31T11:24:01.349Z,99540.22
2022-12-31T11:26:46.575Z,99546.00
2022-12-31T11:29:34.575Z,99536.47
2022-12-31T11:32:07.175Z,99576.34
2022-12-31T11:35:22.130Z,99559.19
2022-12-31T11:38:16.245Z,99532.16
2022-12-31T11:41:07.437Z,99550.47
2022-12-31T11:43:53.235Z,99536.09
2022-12-31T11:46:57.057Z,99559.19
2022-12-31T11:49:37.411Z,99570.69
2022-12-31T11:52:22.246Z,99562.47
2022-12-31T11:55:07.370Z,99554.41
2022-12-31T11:57:37.590Z,99566.13
2022-12-31T12:00:12.799Z,99558.94
2022-12-31T12:02:43.699Z,99568.38
2022-12-31T12:05:13.611Z,99568.34
2022-12-31T12:07:40.106Z,99563.59
2022-12-31T12:10:21.064Z,99545.44
2022-12-31T12:12:47.486Z,99557.78
2022-12-31T12:15:21.429Z,99555.25
2022-12-31T12:17:54.155Z,99581.28
2022-12-31T12:20:36.558Z,99570.75
2022-12-31T12:23:15.053Z,99583.66
2022-12-31T12:25:43.542Z,99560.56
2022-12-31T12:28:19.280Z,99554.38
2022-12-31T12:30:52.677Z,99559.91
2022-12-31T12:33:20.270Z,99561.34
2022-12-31T12:35:47.654Z,99555.09
2022-12-31T12:38:20.914Z,99553.63
2022-12-31T12:40:59.801Z,99558.38
2022-12-31T12:43:33.113Z,99559.88
2022-12-31T12:46:05.858Z,99560.63
2022-12-31T12:48:35.930Z,99550.56
2022-12-31T12:51:15.753Z,99561.31
2022-12-31T12:54:00.484Z,99545.03
2022-12-31T12:56:34.603Z,99569.50
2022-12-31T12:59:40.041Z,99546.41
2022-12-31T13:02:36.911Z,99559.22
2022-12-31T13:05:19.513Z,99549.13
2022-12-31T13:08:13.101Z,99563.38
2022-12-31T13:11:06.757Z,99562.59
2022-12-31T13:14:02.454Z,99560.06
2022-12-31T13:16:40.285Z,99555.59
2022-12-31T13:19:17.509Z,99560.50
2022-12-31T13:22:19.236Z,99569.00
2022-12-31T13:24:55.067Z,99555.59
2022-12-31T13:27:30.805Z,99571.75
2022-12-31T13:30:01.459Z,99563.03
2022-12-31T13:32:38.564Z,99563.63
2022-12-31T13:35:21.892Z,99507.69
2022-12-31T13:37:49.624Z,99545.28
2022-12-31T13:40:26.558Z,99582.91
2022-12-31T13:43:03.004Z,99553.75
2022-12-31T13:45:39.321Z,99562.25
2022-12-31T13:48:23.166Z,99564.75
2022-12-31T13:51:38.911Z,99580.44
2022-12-31T13:54:26.776Z,99585.78
2022-12-31T13:56:55.470Z,99597.19
2022-12-31T13:59:28.097Z,99606.88
2022-12-31T14:02:01.805Z,99605.88
2022-12-31T14:04:37.087Z,99594.13
2022-12-31T14:07:15.682Z,99562.34
2022-12-31T14:09:42.456Z,99578.03
2022-12-31T14:12:44.122Z,99588.31
2022-12-31T14:15:26.809Z,99597.44
2022-12-31T14:18:05.264Z,99592.88
2022-12-31T14:20:46.772Z,99580.94
2022-12-31T14:23:42.229Z,99598.25
2022-12-31T14:26:17.599Z,99599.53
2022-12-31T14:29:06.243Z,99600.16
2022-12-31T14:31:47.844Z,99631.78
2022-12-31T14:34:51.847Z,99630.97
2022-12-31T14:37:52.335Z,99639.59
2022-12-31T14:40:41.687Z,99648.66
2022-12-31T14:43:40.070Z,99653.47
2022-12-31T14:46:30.330Z,99656.13
2022-12-31T14:49:35.435Z,99649.53
2022-12-31T14:52:35.592Z,99652.88
2022-12-31T14:55:15.017Z,99659.88
2022-12-31T14:58:25.332Z,99650.38
2022-12-31T15:00:36.569Z,99651.00
2022-12-31T15:03:15.092Z,99651.00
2022-12-31T15:06:22.805Z,99646.66
2022-12-31T15:09:17.086Z,99655.13
2022-12-31T15:12:25.355Z,99662.16
2022-12-31T15:15:21.051Z,99658.63
2022-12-31T15:17:59.415Z,99673.53
2022-12-31T15:20:42.960Z,99702.22
2022-12-31T15:23:21.205Z,99668.13
2022-12-31T15:25:50.304Z,99696.63
2022-12-31T15:28:35.428Z,99678.25
2022-12-31T15:31:20.409Z,99685.50
2022-12-31T15:33:56.678Z,99700.31
2022-12-31T15:36:26.145Z,99697.06
2022-12-31T15:39:05.334Z,99695.19
2022-12-31T15:42:03.099Z,99704.88
2022-12-31T15:44:50.102Z,99697.88
2022-12-31T15:47:39.635Z,99703.22
2022-12-31T15:50:13.590Z,99698.28
2022-12-31T15:52:43.826Z,99703.03
2022-12-31T15:55:26.102Z,99692.50
2022-12-31T15:57:56.727Z,99691.69
2022-12-31T16:00:24.124Z,99691.28
2022-12-31T16:02:54.027Z,99689.81
2022-12-31T16:05:26.896Z,99699.97
2022-12-31T16:07:58.558Z,99710.69
2022-12-31T16:10:32.106Z,99711.09
2022-12-31T16:12:59.832Z,99699.94
2022-12-31T16:15:32.662Z,99715.22
2022-12-31T16:18:23.045Z,99715.81
2022-12-31T16:20:51.649Z,99719.97
2022-12-31T16:23:27.518Z,99716.03
2022-12-31T16:25:58.369Z,99705.31
2022-12-31T16:28:32.061Z,99707.38
2022-12-31T16:31:05.647Z,99713.16
2022-12-31T16:33:32.718Z,99726.34
2022-12-31T16:36:01.604Z,99721.38
2022-12-31T16:38:36.551Z,99718.91
2022-12-31T16:41:02.927Z,99718.50
2022-12-31T16:43:36.637Z,99732.94
2022-12-31T16:46:26.811Z,99728.00
2022-12-31T16:48:57.158Z,99728.84
2022-12-31T16:51:27.406Z,99739.13
2022-12-31T16:53:54.606Z,99743.47
2022-12-31T16:56:31.584Z,99741.81
2022-12-31T16:59:24.621Z,99741.59
2022-12-31T17:01:52.264Z,99735.41
2022-12-31T17:04:20.943Z,99739.13
2022-12-31T17:06:47.896Z,99740.16
2022-12-31T17:09:15.630Z,99752.94
2022-12-31T17:11:41.927Z,99753.16
2022-12-31T17:14:08.276Z,99739.97
2022-12-31T17:16:45.568Z,99736.25
2022-12-31T17:19:45.949Z,99735.44
2022-12-31T17:22:44.120Z,99733.75
2022-12-31T17:25:28.479Z,99743.03
2022-12-31T17:28:00.584Z,99736.22
2022-12-31T17:30:32.880Z,99734.81
2022-12-31T17:33:11.431Z,99731.50
2022-12-31T17:35:42.106Z,99745.94
2022-12-31T17:38:17.875Z,99761.00
2022-12-31T17:40:51.721Z,99763.03
2022-12-31T17:43:20.365Z,99758.91
2022-12-31T17:45:50.045Z,99761.19
2022-12-31T17:48:18.657Z,99760.78
2022-12-31T17:50:52.073Z,99769.25
2022-12-31T17:53:19.185Z,99758.94
2022-12-31T17:55:49.395Z,99785.34
2022-12-31T17:58:42.509Z,99786.75
2022-12-31T18:01:09.673Z,99784.91
2022-12-31T18:03:36.496Z,99801.41
2022-12-31T18:06:03.103Z,99789.84
2022-12-31T18:08:29.479Z,99778.09
2022-12-31T18:10:56.010Z,99787.78
2022-12-31T18:13:26.858Z,99794.78
2022-12-31T18:15:54.272Z,99794.38
2022-12-31T18:18:25.476Z,99791.69
2022-12-31T18:20:56.226Z,99785.28
2022-12-31T18:23:27.829Z,99787.72
2022-12-31T18:25:54.595Z,99783.00
2022-12-31T18:28:20.962Z,99789.75
2022-12-31T18:30:48.016Z,99790.78
2022-12-31T18:33:19.872Z,99792.44
2022-12-31T18:36:08.274Z,99781.94
2022-12-31T18:38:33.621Z,99780.53
2022-12-31T18:41:00.111Z,99775.13
2022-12-31T18:43:26.597Z,99760.94
2022-12-31T18:45:52.997Z,99762.56
2022-12-31T18:48:19.623Z,99768.72
2022-12-31T18:50:47.330Z,99764.00
2022-12-31T18:53:19.919Z,99760.44
2022-12-31T18:55:53.127Z,99768.66
2022-12-31T18:58:19.843Z,99765.53
2022-12-31T19:00:47.433Z,99754.69
2022-12-31T19:03:16.238Z,99750.06
2022-12-31T19:05:43.478Z,99745.13
2022-12-31T19:08:10.056Z,99751.69
2022-12-31T19:10:36.539Z,99752.91
2022-12-31T19:13:03.270Z,99749.59
2022-12-31T19:15:38.808Z,99743.41
2022-12-31T19:18:05.584Z,99747.69
2022-12-31T19:20:32.163Z,99748.75
2022-12-31T19:22:58.618Z,99745.03
2022-12-31T19:25:27.749Z,99751.44
2022-12-31T19:27:54.080Z,99742.78
2022-12-31T19:30:32.090Z,99734.72
2022-12-31T19:32:58.932Z,99730.63
2022-12-31T19:35:26.500Z,99743.84
2022-12-31T19:37:54.881Z,99738.50
2022-12-31T19:40:26.661Z,99740.16
2022-12-31T19:42:54.808Z,99734.47
2022-12-31T19:45:24.283Z,99732.03
2022-12-31T19:47:51.679Z,99732.63
2022-12-31T19:50:21.467Z,99724.81
2022-12-31T19:52:49.140Z,99734.94
2022-12-31T19:55:19.263Z,99738.44
2022-12-31T19:57:46.923Z,99738.25
2022-12-31T20:00:16.362Z,99732.91
2022-12-31T20:02:44.964Z,99722.63
2022-12-31T20:05:12.804Z,99734.81
2022-12-31T20:07:39.577Z,99736.44
2022-12-31T20:10:06.973Z,99734.59
2022-12-31T20:12:37.790Z,99731.28
2022-12-31T20:15:08.197Z,99728.00
2022-12-31T20:17:35.001Z,99726.34
2022-12-31T20:20:01.392Z,99734.16
2022-12-31T20:22:27.803Z,99739.56
2022-12-31T20:24:54.198Z,99727.59
2022-12-31T20:27:20.556Z,99734.38
2022-12-31T20:29:47.245Z,99736.44
2022-12-31T20:32:13.639Z,99726.13
2022-12-31T20:34:40.026Z,99740.56
2022-12-31T20:37:06.504Z,99709.03
2022-12-31T20:39:32.836Z,99732.31
2022-12-31T20:41:59.192Z,99727.38
2022-12-31T20:44:25.623Z,99720.78
2022-12-31T20:46:52.290Z,99711.06
2022-12-31T20:49:37.181Z,99717.69
2022-12-31T20:52:05.481Z,99722.00
2022-12-31T20:54:32.021Z,99724.69
2022-12-31T20:56:58.664Z,99715.41
2022-12-31T20:59:25.023Z,99711.09
2022-12-31T21:02:20.108Z,99698.28
2022-12-31T21:04:37.885Z,99702.41
2022-12-31T21:07:04.331Z,99692.50
2022-12-31T21:09:30.707Z,99683.44
2022-12-31T21:12:15.861Z,99690.66
2022-12-31T21:14:44.834Z,99683.84
2022-12-31T21:17:11.756Z,99663.63
2022-12-31T21:19:38.209Z,99652.69
2022-12-31T21:22:04.787Z,99678.47
2022-12-31T21:24:31.223Z,99659.94
2022-12-31T21:26:57.745Z,99659.31
2022-12-31T21:29:24.100Z,99651.88
2022-12-31T21:31:50.680Z,99669.84
2022-12-31T21:34:17.060Z,99670.84
2022-12-31T21:36:43.472Z,99657.00
2022-12-31T21:39:09.807Z,99674.38
2022-12-31T21:41:51.548Z,99664.88
2022-12-31T21:44:23.024Z,99673.72
2022-12-31T21:47:35.369Z,99671.69
2022-12-31T21:50:04.111Z,99680.53
2022-12-31T21:52:33.345Z,99680.53
2022-12-31T21:55:20.369Z,99683.44
2022-12-31T21:58:23.959Z,99701.19
2022-12-31T22:00:53.909Z,99702.81
2022-12-31T22:03:27.786Z,99706.56
2022-12-31T22:06:00.728Z,99718.69
2022-12-31T22:08:29.328Z,99722.63
2022-12-31T22:10:56.503Z,99730.25
2022-12-31T22:13:22.912Z,99733.56
2022-12-31T22:15:56.334Z,99733.34
2022-12-31T22:18:27.896Z,99745.94
2022-12-31T22:21:19.015Z,99753.16
2022-12-31T22:23:47.830Z,99752.09
2022-12-31T22:26:16.182Z,99759.16
2022-12-31T22:28:44.497Z,99767.59
2022-12-31T22:31:23.066Z,99766.38
2022-12-31T22:33:49.991Z,99769.66
2022-12-31T22:36:19.804Z,99780.59
2022-12-31T22:38:46.751Z,99785.75
2022-12-31T22:41:17.912Z,99786.97
2022-12-31T22:43:47.400Z,99788.44
2022-12-31T22:46:19.805Z,99781.19
2022-12-31T22:48:46.757Z,99791.13
2022-12-31T22:51:14.702Z,99793.19
2022-12-31T22:53:43.258Z,99787.41
2022-12-31T22:56:12.427Z,99795.25
2022-12-31T22:58:39.063Z,99804.50
2022-12-31T23:01:19.108Z,99808.88
2022-12-31T23:03:47.159Z,99802.66
2022-12-31T23:06:13.942Z,99810.50
2022-12-31T23:08:40.666Z,99815.88
2022-12-31T23:11:09.482Z,99825.59
2022-12-31T23:13:57.595Z,99811.16
2022-12-31T23:16:45.051Z,99826.22
2022-12-31T23:19:33.047Z,99817.56
2022-12-31T23:22:18.707Z,99810.50
2022-12-31T23:24:45.187Z,99823.34
2022-12-31T23:27:12.226Z,99832.41
2022-12-31T23:29:46.132Z,99831.97
2022-12-31T23:32:15.746Z,99841.88
2022-12-31T23:34:44.298Z,99836.50
2022-12-31T23:37:11.793Z,99827.00
2022-12-31T23:39:38.210Z,99834.84
2022-12-31T23:42:04.715Z,99823.09
2022-12-31T23:44:31.132Z,99832.38
2022-12-31T23:46:57.540Z,99831.34
2022-12-31T23:49:23.979Z,99828.03
2022-12-31T23:51:50.327Z,99835.69
2022-12-31T23:54:17.777Z,99840.19
2022-12-31T23:56:44.374Z,99855.47
2022-12-31T23:59:11.819Z,99862.47
